createdAt,value
2022-10-25T00:01:30.587Z,1.75
2022-10-25T00:03:59.917Z,2.35
2022-10-25T00:06:26.297Z,1.90
2022-10-25T00:08:52.796Z,2.33
2022-10-25T00:11:20.876Z,2.05
2022-10-25T00:13:51.316Z,2.15
2022-10-25T00:16:19.614Z,2.40
2022-10-25T00:18:45.965Z,2.70
2022-10-25T00:21:12.355Z,2.80
2022-10-25T00:23:38.923Z,3.58
2022-10-25T00:26:08.676Z,2.90
2022-10-25T00:28:35.056Z,2.95
2022-10-25T00:31:06.649Z,4.45
2022-10-25T00:33:33.720Z,2.67
2022-10-25T00:36:04.523Z,3.30
2022-10-25T00:38:31.453Z,2.85
2022-10-25T00:40:57.827Z,4.95
2022-10-25T00:43:31.379Z,3.15
2022-10-25T00:45:57.848Z,3.58
2022-10-25T00:48:27.907Z,3.42
2022-10-25T00:50:54.464Z,3.37
2022-10-25T00:53:23.045Z,2.78
2022-10-25T00:55:53.859Z,3.55
2022-10-25T00:58:22.578Z,3.63
2022-10-25T01:00:49.263Z,3.55
2022-10-25T01:03:16.627Z,3.40
2022-10-25T01:05:43.598Z,3.15
2022-10-25T01:08:10.481Z,3.00
2022-10-25T01:10:37.984Z,3.22
2022-10-25T01:13:04.389Z,3.75
2022-10-25T01:15:39.934Z,3.40
2022-10-25T01:18:14.129Z,4.95
2022-10-25T01:20:56.077Z,3.20
2022-10-25T01:23:34.638Z,3.30
2022-10-25T01:26:10.127Z,3.00
2022-10-25T01:28:42.579Z,3.35
2022-10-25T01:31:32.739Z,2.90
2022-10-25T01:34:06.262Z,3.77
2022-10-25T01:36:45.681Z,2.78
2022-10-25T01:39:19.645Z,3.10
2022-10-25T01:41:51.361Z,3.42
2022-10-25T01:47:17.493Z,3.08
2022-10-25T01:49:46.928Z,3.08
2022-10-25T01:52:23.188Z,3.50
2022-10-25T01:54:50.595Z,3.92
2022-10-25T01:57:16.954Z,4.07
2022-10-25T02:00:13.841Z,4.22
2022-10-25T02:02:52.392Z,2.60
2022-10-25T02:05:23.707Z,3.35
2022-10-25T02:07:53.105Z,3.30
2022-10-25T02:10:19.459Z,3.03
2022-10-25T02:13:02.016Z,4.40
2022-10-25T02:15:37.451Z,3.33
2022-10-25T02:18:05.190Z,2.58
2022-10-25T02:20:33.702Z,4.75
2022-10-25T02:23:02.350Z,2.75
2022-10-25T02:25:29.364Z,2.97
2022-10-25T02:27:57.349Z,2.90
2022-10-25T02:30:23.926Z,3.03
2022-10-25T02:32:50.368Z,2.88
2022-10-25T02:35:18.419Z,2.97
2022-10-25T02:37:45.165Z,3.17
2022-10-25T02:40:14.865Z,3.05
2022-10-25T02:42:41.241Z,2.50
2022-10-25T02:45:07.999Z,2.95
2022-10-25T02:47:34.414Z,2.33
2022-10-25T02:50:00.817Z,2.25
2022-10-25T02:52:27.209Z,2.20
2022-10-25T02:54:53.562Z,2.13
2022-10-25T02:57:19.914Z,1.90
2022-10-25T02:59:46.298Z,2.13
2022-10-25T03:02:13.535Z,2.30
2022-10-25T03:04:39.928Z,1.70
2022-10-25T03:07:06.267Z,2.35
2022-10-25T03:09:32.618Z,2.35
2022-10-25T03:11:59.129Z,3.10
2022-10-25T03:14:25.790Z,2.47
2022-10-25T03:16:52.137Z,2.70
2022-10-25T03:19:18.581Z,2.60
2022-10-25T03:21:47.709Z,2.58
2022-10-25T03:24:14.070Z,2.50
2022-10-25T03:26:40.504Z,2.63
2022-10-25T03:29:06.981Z,2.58
2022-10-25T03:31:33.335Z,2.63
2022-10-25T03:33:59.677Z,3.13
2022-10-25T03:36:26.055Z,3.35
2022-10-25T03:38:52.422Z,2.75
2022-10-25T03:41:18.770Z,2.95
2022-10-25T03:43:45.109Z,4.70
2022-10-25T03:46:11.477Z,2.30
2022-10-25T03:48:37.870Z,3.85
2022-10-25T03:51:04.365Z,4.22
2022-10-25T03:53:30.759Z,2.92
2022-10-25T03:55:57.103Z,3.20
2022-10-25T03:58:23.472Z,2.60
2022-10-25T04:00:49.851Z,5.05
2022-10-25T04:03:18.436Z,2.80
2022-10-25T04:05:44.866Z,3.28
2022-10-25T04:08:11.202Z,3.90
2022-10-25T04:10:37.773Z,3.45
2022-10-25T04:13:04.151Z,3.10
2022-10-25T04:15:30.662Z,3.60
2022-10-25T04:17:57.025Z,3.22
2022-10-25T04:20:23.371Z,3.22
2022-10-25T04:22:53.623Z,3.72
2022-10-25T04:25:19.964Z,2.67
2022-10-25T04:27:46.729Z,2.55
2022-10-25T04:30:13.268Z,2.65
2022-10-25T04:32:39.584Z,2.78
2022-10-25T04:35:06.110Z,3.03
2022-10-25T04:37:32.443Z,3.88
2022-10-25T04:39:58.799Z,3.20
2022-10-25T04:42:25.134Z,3.88
2022-10-25T04:44:51.461Z,4.13
2022-10-25T04:47:17.818Z,3.45
2022-10-25T04:49:44.218Z,3.65
2022-10-25T04:52:10.684Z,5.15
2022-10-25T04:54:37.027Z,6.07
2022-10-25T04:57:03.577Z,4.05
2022-10-25T04:59:29.897Z,3.60
2022-10-25T05:01:56.247Z,5.35
2022-10-25T05:04:22.590Z,5.07
2022-10-25T05:06:48.992Z,5.65
2022-10-25T05:09:15.452Z,4.60
2022-10-25T05:11:41.794Z,4.88
2022-10-25T05:14:08.163Z,4.03
2022-10-25T05:16:35.298Z,4.93
2022-10-25T05:19:01.819Z,5.28
2022-10-25T05:21:31.408Z,5.50
2022-10-25T05:24:02.045Z,5.05
2022-10-25T05:28:55.546Z,4.68
2022-10-25T05:31:23.750Z,4.68
2022-10-25T05:33:51.294Z,4.95
2022-10-25T05:36:17.852Z,4.50
2022-10-25T05:38:44.231Z,5.65
2022-10-25T05:41:11.669Z,4.65
2022-10-25T05:43:38.153Z,3.85
2022-10-25T05:46:09.448Z,4.30
2022-10-25T05:48:36.903Z,4.40
2022-10-25T05:51:28.731Z,4.53
2022-10-25T05:53:58.722Z,4.63
2022-10-25T05:56:31.433Z,4.53
2022-10-25T05:58:58.079Z,5.63
2022-10-25T06:01:26.345Z,5.00
2022-10-25T06:03:53.821Z,5.20
2022-10-25T06:06:20.629Z,4.88
2022-10-25T06:08:47.146Z,4.68
2022-10-25T06:11:15.479Z,5.60
2022-10-25T06:13:42.126Z,4.55
2022-10-25T06:16:12.627Z,5.13
2022-10-25T06:18:39.059Z,4.85
2022-10-25T06:21:07.161Z,5.03
2022-10-25T06:23:36.024Z,4.47
2022-10-25T06:26:03.890Z,4.78
2022-10-25T06:28:30.696Z,4.60
2022-10-25T06:31:04.878Z,4.38
2022-10-25T06:33:31.737Z,4.93
2022-10-25T06:35:58.906Z,4.78
2022-10-25T06:38:27.066Z,5.65
2022-10-25T06:41:00.313Z,4.80
2022-10-25T06:43:27.074Z,5.20
2022-10-25T06:45:53.572Z,5.57
2022-10-25T06:48:20.255Z,5.75
2022-10-25T06:50:49.863Z,7.28
2022-10-25T06:53:18.598Z,5.25
2022-10-25T06:55:47.239Z,4.57
2022-10-25T06:58:13.829Z,4.25
2022-10-25T07:00:40.370Z,4.88
2022-10-25T07:03:06.751Z,4.90
2022-10-25T07:05:33.246Z,5.13
2022-10-25T07:07:59.652Z,4.75
2022-10-25T07:10:26.097Z,5.03
2022-10-25T07:12:52.486Z,5.20
2022-10-25T07:15:24.164Z,5.15
2022-10-25T07:17:50.713Z,5.47
2022-10-25T07:20:17.271Z,5.05
2022-10-25T07:22:43.726Z,5.97
2022-10-25T07:25:10.271Z,7.10
2022-10-25T07:27:36.714Z,5.10
2022-10-25T07:30:03.857Z,6.07
2022-10-25T07:32:33.215Z,7.03
2022-10-25T07:34:59.599Z,5.10
2022-10-25T07:37:25.986Z,5.50
2022-10-25T07:39:52.446Z,6.65
2022-10-25T07:42:18.826Z,9.85
2022-10-25T07:47:11.650Z,6.07
2022-10-25T07:49:38.888Z,4.93
2022-10-25T07:52:05.354Z,5.28
2022-10-25T07:54:31.707Z,8.20
2022-10-25T07:56:58.981Z,10.68
2022-10-25T07:59:25.337Z,7.03
2022-10-25T08:01:51.716Z,11.10
2022-10-25T08:04:18.658Z,12.45
2022-10-25T08:06:45.054Z,5.80
2022-10-25T08:09:14.771Z,5.85
2022-10-25T08:11:46.805Z,5.15
2022-10-25T08:14:13.267Z,5.15
2022-10-25T08:16:39.653Z,4.88
2022-10-25T08:19:06.135Z,5.38
2022-10-25T08:21:32.638Z,4.80
2022-10-25T08:23:58.980Z,5.43
2022-10-25T08:26:26.786Z,6.20
2022-10-25T08:28:53.134Z,4.55
2022-10-25T08:31:19.726Z,5.38
2022-10-25T08:33:46.175Z,5.00
2022-10-25T08:36:12.513Z,4.72
2022-10-25T08:38:38.975Z,4.25
2022-10-25T08:41:10.410Z,6.00
2022-10-25T08:43:36.858Z,5.25
2022-10-25T08:46:05.907Z,5.25
2022-10-25T08:48:37.782Z,5.90
2022-10-25T08:51:07.676Z,6.32
2022-10-25T08:53:41.037Z,5.53
2022-10-25T08:56:16.447Z,4.88
2022-10-25T08:58:46.402Z,6.60
2022-10-25T09:01:22.182Z,5.32
2022-10-25T09:03:48.609Z,6.15
2022-10-25T09:06:18.897Z,5.72
2022-10-25T09:08:45.200Z,5.30
2022-10-25T09:11:26.959Z,5.40
2022-10-25T09:14:03.634Z,6.00
2022-10-25T09:16:30.068Z,5.10
2022-10-25T09:18:57.726Z,5.30
2022-10-25T09:21:38.764Z,5.93
2022-10-25T09:26:31.409Z,4.90
2022-10-25T09:29:04.391Z,4.75
2022-10-25T09:31:33.430Z,4.35
2022-10-25T09:34:04.005Z,4.55
2022-10-25T09:36:33.494Z,4.43
2022-10-25T09:39:02.285Z,4.07
2022-10-25T09:41:31.696Z,4.82
2022-10-25T09:44:01.230Z,4.28
2022-10-25T09:46:27.553Z,3.42
2022-10-25T09:49:00.230Z,4.30
2022-10-25T09:51:37.875Z,3.78
2022-10-25T09:54:11.140Z,4.00
2022-10-25T09:56:39.297Z,4.43
2022-10-25T09:59:05.692Z,4.82
2022-10-25T10:01:37.252Z,4.18
2022-10-25T10:04:11.059Z,5.38
2022-10-25T10:06:38.919Z,4.38
2022-10-25T10:09:06.937Z,4.68
2022-10-25T10:11:36.579Z,4.20
2022-10-25T10:14:05.010Z,4.93
2022-10-25T10:19:21.016Z,4.82
2022-10-25T10:21:49.571Z,4.22
2022-10-25T10:24:18.406Z,5.15
2022-10-25T10:26:51.554Z,3.58
2022-10-25T10:29:20.351Z,3.63
2022-10-25T10:31:48.350Z,3.15
2022-10-25T10:34:30.469Z,3.45
2022-10-25T10:37:07.453Z,3.55
2022-10-25T10:39:33.989Z,4.75
2022-10-25T10:42:03.489Z,3.10
2022-10-25T10:44:35.599Z,2.90
2022-10-25T10:47:10.017Z,4.80
2022-10-25T10:49:37.514Z,3.63
2022-10-25T10:52:04.318Z,2.70
2022-10-25T10:54:34.610Z,3.05
2022-10-25T10:57:04.962Z,2.97
2022-10-25T10:59:54.366Z,3.25
2022-10-25T11:02:26.581Z,2.78
2022-10-25T11:04:55.032Z,2.95
2022-10-25T11:07:28.540Z,2.78
2022-10-25T11:10:14.899Z,2.70
2022-10-25T11:12:41.803Z,2.60
2022-10-25T11:15:14.742Z,2.90
2022-10-25T11:17:49.995Z,2.17
2022-10-25T11:20:25.622Z,2.85
2022-10-25T11:23:10.829Z,2.63
2022-10-25T11:25:37.283Z,5.75
2022-10-25T11:28:06.708Z,4.32
2022-10-25T11:30:39.458Z,3.13
2022-10-25T11:33:05.860Z,3.85
2022-10-25T11:35:32.192Z,3.78
2022-10-25T11:38:04.741Z,2.85
2022-10-25T11:40:33.037Z,2.65
2022-10-25T11:43:24.165Z,3.13
2022-10-25T11:48:34.897Z,2.70
2022-10-25T11:51:04.318Z,2.28
2022-10-25T11:53:30.744Z,2.65
2022-10-25T11:56:17.378Z,2.75
2022-10-25T11:59:03.277Z,3.17
2022-10-25T12:01:35.098Z,1.90
2022-10-25T12:04:19.987Z,3.05
2022-10-25T12:07:06.581Z,2.90
2022-10-25T12:09:51.345Z,2.55
2022-10-25T12:12:19.684Z,2.75
2022-10-25T12:14:55.115Z,2.35
2022-10-25T12:17:24.650Z,1.73
2022-10-25T12:19:51.758Z,1.45
2022-10-25T12:22:23.464Z,2.78
2022-10-25T12:24:56.786Z,2.00
2022-10-25T12:27:24.339Z,1.90
2022-10-25T12:29:53.562Z,2.33
2022-10-25T12:32:41.332Z,1.83
2022-10-25T12:35:17.537Z,1.30
2022-10-25T12:37:51.298Z,1.52
2022-10-25T12:40:21.558Z,2.30
2022-10-25T12:42:50.351Z,1.75
2022-10-25T12:45:42.522Z,1.65
2022-10-25T12:48:18.153Z,2.22
2022-10-25T12:50:50.098Z,1.50
2022-10-25T12:53:27.454Z,1.40
2022-10-25T12:55:53.866Z,2.10
2022-10-25T12:58:20.397Z,1.95
2022-10-25T13:01:01.670Z,1.83
2022-10-25T13:03:47.077Z,2.13
2022-10-25T13:06:29.470Z,3.13
2022-10-25T13:09:00.702Z,2.00
2022-10-25T13:11:34.412Z,1.83
2022-10-25T13:14:01.933Z,3.22
2022-10-25T13:16:29.813Z,2.30
2022-10-25T13:19:25.940Z,1.83
2022-10-25T13:22:11.743Z,2.20
2022-10-25T13:24:44.879Z,1.65
2022-10-25T13:27:30.417Z,2.03
2022-10-25T13:30:00.986Z,1.70
2022-10-25T13:32:28.320Z,1.73
2022-10-25T13:34:58.905Z,2.10
2022-10-25T13:37:31.427Z,1.83
2022-10-25T13:39:58.817Z,1.48
2022-10-25T13:42:36.109Z,2.03
2022-10-25T13:45:02.435Z,3.50
2022-10-25T13:47:41.891Z,2.28
2022-10-25T13:52:59.028Z,2.20
2022-10-25T13:55:30.784Z,2.63
2022-10-25T13:57:58.221Z,2.30
2022-10-25T14:00:27.479Z,2.25
2022-10-25T14:03:06.020Z,1.90
2022-10-25T14:05:51.250Z,1.90
2022-10-25T14:08:37.976Z,4.18
2022-10-25T14:11:12.745Z,2.50
2022-10-25T14:13:59.943Z,2.47
2022-10-25T14:16:31.140Z,2.15
2022-10-25T14:19:12.636Z,2.10
2022-10-25T14:21:39.484Z,2.00
2022-10-25T14:24:10.712Z,2.00
2022-10-25T14:26:37.092Z,2.35
2022-10-25T14:29:14.470Z,1.60
2022-10-25T14:31:40.849Z,2.33
2022-10-25T14:34:16.851Z,2.28
2022-10-25T14:36:50.790Z,2.92
2022-10-25T14:39:20.357Z,2.30
2022-10-25T14:41:51.012Z,2.53
2022-10-25T14:44:20.335Z,2.90
2022-10-25T14:46:46.693Z,2.13
2022-10-25T14:49:13.037Z,2.17
2022-10-25T14:51:40.970Z,2.65
2022-10-25T14:54:10.327Z,2.15
2022-10-25T14:56:42.208Z,1.92
2022-10-25T14:59:18.135Z,2.03
2022-10-25T15:02:05.860Z,2.17
2022-10-25T15:04:38.736Z,2.08
2022-10-25T15:07:05.547Z,2.20
2022-10-25T15:09:47.420Z,2.47
2022-10-25T15:12:13.801Z,3.00
2022-10-25T15:14:40.192Z,2.35
2022-10-25T15:17:15.051Z,2.40
2022-10-25T15:19:59.850Z,2.45
2022-10-25T15:22:30.534Z,2.83
2022-10-25T15:24:57.672Z,3.67
2022-10-25T15:27:42.678Z,2.08
2022-10-25T15:30:27.493Z,2.83
2022-10-25T15:32:53.858Z,2.22
2022-10-25T15:35:23.569Z,3.20
2022-10-25T15:37:49.909Z,2.67
2022-10-25T15:40:16.660Z,2.88
2022-10-25T15:42:43.076Z,2.50
2022-10-25T15:45:11.591Z,3.33
2022-10-25T15:47:38.574Z,2.88
2022-10-25T15:50:10.930Z,3.00
2022-10-25T15:52:37.287Z,4.75
2022-10-25T15:55:09.175Z,2.58
2022-10-25T15:57:35.575Z,3.72
2022-10-25T16:00:01.946Z,3.60
2022-10-25T16:02:28.747Z,3.85
2022-10-25T16:04:55.117Z,5.15
2022-10-25T16:07:22.360Z,4.20
2022-10-25T16:09:48.983Z,3.40
2022-10-25T16:12:21.584Z,3.13
2022-10-25T16:14:49.530Z,3.30
2022-10-25T16:17:15.862Z,3.15
2022-10-25T16:19:42.254Z,2.85
2022-10-25T16:22:08.593Z,3.80
2022-10-25T16:24:34.964Z,3.28
2022-10-25T16:27:01.504Z,3.20
2022-10-25T16:29:27.883Z,2.63
2022-10-25T16:31:54.274Z,2.88
2022-10-25T16:34:20.961Z,4.75
2022-10-25T16:36:48.003Z,3.53
2022-10-25T16:39:14.831Z,3.15
2022-10-25T16:41:42.435Z,3.88
2022-10-25T16:44:10.875Z,3.00
2022-10-25T16:46:37.459Z,3.70
2022-10-25T16:49:05.350Z,3.40
2022-10-25T16:51:34.358Z,2.83
2022-10-25T16:54:00.790Z,4.00
2022-10-25T16:56:27.760Z,3.50
2022-10-25T16:58:54.367Z,3.25
2022-10-25T17:01:22.543Z,3.25
2022-10-25T17:03:49.889Z,5.18
2022-10-25T17:06:39.712Z,3.42
2022-10-25T17:09:03.717Z,3.85
2022-10-25T17:11:30.127Z,4.30
2022-10-25T17:13:56.642Z,3.47
2022-10-25T17:16:23.052Z,3.67
2022-10-25T17:18:49.466Z,3.75
2022-10-25T17:21:16.916Z,3.85
2022-10-25T17:23:43.763Z,3.78
2022-10-25T17:26:11.596Z,2.97
2022-10-25T17:28:43.949Z,2.95
2022-10-25T17:31:12.230Z,2.95
2022-10-25T17:33:38.684Z,3.28
2022-10-25T17:36:06.534Z,4.10
2022-10-25T17:38:32.983Z,4.97
2022-10-25T17:40:59.475Z,3.28
2022-10-25T17:43:25.878Z,3.97
2022-10-25T17:45:58.889Z,3.90
2022-10-25T17:48:25.338Z,3.10
2022-10-25T17:50:51.915Z,3.30
2022-10-25T17:53:18.477Z,3.10
2022-10-25T17:55:44.875Z,3.40
2022-10-25T17:58:11.483Z,3.17
2022-10-25T18:00:37.915Z,3.85
2022-10-25T18:03:07.437Z,4.45
2022-10-25T18:05:33.810Z,5.05
2022-10-25T18:08:00.180Z,5.18
2022-10-25T18:10:26.615Z,6.68
2022-10-25T18:12:53.415Z,4.20
2022-10-25T18:15:19.914Z,6.32
2022-10-25T18:17:47.047Z,6.68
2022-10-25T18:20:16.187Z,5.90
2022-10-25T18:22:42.711Z,4.18
2022-10-25T18:25:09.484Z,3.80
2022-10-25T18:27:36.159Z,3.25
2022-10-25T18:30:04.327Z,4.07
2022-10-25T18:32:33.742Z,3.67
2022-10-25T18:35:02.541Z,5.15
2022-10-25T18:37:29.009Z,3.95
2022-10-25T18:39:55.370Z,3.00
2022-10-25T18:42:21.739Z,3.42
2022-10-25T18:44:48.153Z,3.42
2022-10-25T18:47:14.525Z,3.90
2022-10-25T18:49:41.002Z,3.58
2022-10-25T18:52:07.513Z,3.15
2022-10-25T18:54:34.042Z,3.65
2022-10-25T18:57:00.430Z,3.17
2022-10-25T18:59:26.834Z,3.13
2022-10-25T19:01:53.270Z,3.88
2022-10-25T19:04:19.744Z,3.55
2022-10-25T19:06:46.091Z,3.75
2022-10-25T19:09:14.310Z,3.53
2022-10-25T19:11:40.821Z,2.90
2022-10-25T19:14:07.459Z,3.60
2022-10-25T19:16:35.875Z,3.40
2022-10-25T19:19:03.322Z,3.65
2022-10-25T19:21:29.702Z,3.25
2022-10-25T19:23:57.081Z,4.72
2022-10-25T19:26:23.601Z,3.28
2022-10-25T19:28:55.133Z,2.97
2022-10-25T19:31:21.473Z,3.22
2022-10-25T19:33:48.697Z,3.33
2022-10-25T19:36:15.773Z,3.08
2022-10-25T19:38:42.351Z,2.90
2022-10-25T19:41:10.193Z,3.63
2022-10-25T19:43:36.784Z,3.33
2022-10-25T19:46:04.742Z,3.45
2022-10-25T19:48:31.905Z,2.83
2022-10-25T19:51:04.167Z,2.95
2022-10-25T19:53:30.612Z,2.70
2022-10-25T19:55:58.258Z,4.38
2022-10-25T19:58:24.948Z,3.92
2022-10-25T20:00:59.289Z,2.50
2022-10-25T20:03:25.776Z,2.85
2022-10-25T20:05:59.377Z,2.22
2022-10-25T20:08:25.998Z,2.30
2022-10-25T20:10:52.553Z,2.78
2022-10-25T20:13:19.348Z,2.30
2022-10-25T20:15:51.377Z,2.25
2022-10-25T20:18:19.343Z,2.50
2022-10-25T20:20:49.413Z,2.25
2022-10-25T20:23:16.947Z,2.38
2022-10-25T20:25:43.514Z,2.60
2022-10-25T20:28:10.787Z,2.20
2022-10-25T20:30:41.078Z,1.98
2022-10-25T20:33:07.879Z,2.47
2022-10-25T20:35:38.260Z,2.40
2022-10-25T20:38:05.154Z,2.30
2022-10-25T20:40:32.023Z,2.85
2022-10-25T20:42:58.403Z,2.60
2022-10-25T20:45:25.949Z,2.33
2022-10-25T20:47:56.123Z,2.08
2022-10-25T20:50:22.771Z,3.25
2022-10-25T20:53:09.309Z,2.30
2022-10-25T20:55:35.585Z,2.97
2022-10-25T20:58:02.063Z,2.60
2022-10-25T21:00:28.476Z,2.45
2022-10-25T21:02:54.826Z,4.03
2022-10-25T21:05:21.277Z,2.00
2022-10-25T21:07:48.117Z,2.70
2022-10-25T21:10:14.762Z,2.70
2022-10-25T21:12:41.171Z,2.40
2022-10-25T21:15:11.850Z,3.00
2022-10-25T21:17:38.798Z,2.53
2022-10-25T21:20:05.415Z,2.53
2022-10-25T21:22:31.798Z,2.33
2022-10-25T21:24:58.209Z,2.38
2022-10-25T21:27:24.780Z,2.30
2022-10-25T21:29:51.322Z,2.42
2022-10-25T21:32:17.708Z,2.17
2022-10-25T21:34:44.154Z,2.70
2022-10-25T21:37:10.592Z,2.17
2022-10-25T21:39:37.136Z,2.95
2022-10-25T21:42:03.641Z,2.25
2022-10-25T21:44:30.041Z,1.75
2022-10-25T21:46:56.486Z,2.33
2022-10-25T21:49:22.896Z,2.78
2022-10-25T21:51:49.335Z,2.28
2022-10-25T21:54:16.020Z,2.08
2022-10-25T21:56:42.449Z,3.80
2022-10-25T21:59:08.886Z,2.08
2022-10-25T22:01:35.563Z,1.85
2022-10-25T22:04:02.289Z,2.17
2022-10-25T22:06:29.040Z,2.72
2022-10-25T22:08:55.826Z,2.70
2022-10-25T22:11:26.698Z,2.33
2022-10-25T22:13:57.163Z,2.03
2022-10-25T22:16:23.831Z,2.10
2022-10-25T22:18:52.133Z,1.85
2022-10-25T22:21:18.538Z,3.78
2022-10-25T22:23:44.973Z,1.70
2022-10-25T22:26:12.423Z,2.20
2022-10-25T22:28:40.984Z,2.30
2022-10-25T22:31:11.854Z,2.15
2022-10-25T22:33:38.751Z,2.38
2022-10-25T22:36:08.309Z,1.52
2022-10-25T22:38:35.055Z,2.63
2022-10-25T22:41:04.039Z,1.73
2022-10-25T22:43:30.487Z,1.92
2022-10-25T22:45:59.831Z,2.67
2022-10-25T22:48:29.506Z,1.90
2022-10-25T22:50:55.999Z,2.00
2022-10-25T22:53:22.349Z,1.40
2022-10-25T22:55:55.152Z,1.60
2022-10-25T22:58:21.996Z,2.30
2022-10-25T23:00:48.411Z,2.22
2022-10-25T23:03:14.737Z,1.73
2022-10-25T23:05:41.071Z,1.50
2022-10-25T23:08:07.630Z,2.42
2022-10-25T23:10:33.972Z,1.70
2022-10-25T23:13:00.309Z,1.52
2022-10-25T23:15:29.681Z,1.42
2022-10-25T23:17:55.998Z,1.70
2022-10-25T23:20:22.367Z,2.15
2022-10-25T23:22:48.855Z,1.80
2022-10-25T23:25:15.526Z,1.67
2022-10-25T23:27:41.875Z,2.65
2022-10-25T23:30:11.110Z,1.83
2022-10-25T23:32:39.628Z,1.60
2022-10-25T23:35:06.102Z,1.67
2022-10-25T23:37:32.447Z,1.63
2022-10-25T23:39:58.796Z,1.40
2022-10-25T23:42:25.135Z,1.75
2022-10-25T23:44:51.482Z,1.40
2022-10-25T23:47:17.946Z,1.73
2022-10-25T23:49:44.313Z,1.67
2022-10-25T23:52:10.655Z,1.38
2022-10-25T23:54:36.985Z,1.92
2022-10-25T23:57:03.444Z,2.17
2022-10-25T23:59:29.759Z,2.15
